EBCI - Charleroi/Gosselies, Belgium
Distance de la station: NE 18km
Mise à jour: 26/07/2021 03:50
partiellement nuageux
partiellement nuageux
 Wind from S
Vent: S 9 km/h
Température: 16°C
Point de rosée: 15°C
Humidité: 94%
Baromètre: 1009 hPa
Ciel: partiellement nuageux
Visibilité: 10 km
Détails du ciel: partiellement nuageux 274 m
2021/07/26 01:50 EBCI 260150Z 17005KT 9999 SCT009 16/15 Q1009 NOSIG
EBFS - Florennes, Belgium
Distance de la station: ESE 31km
Mise à jour: 26/07/2021 03:55
principalement nuageux
principalement nuageux
 Wind from S
Vent: S 11 km/h
Température: 15°C
Point de rosée: 15°C
Humidité: 100%
Baromètre: 1009 hPa
Ciel: principalement nuageux
Visibilité: 10 km
Détails du ciel: partiellement nuageux 152 m
principalement nuageux 213 m
2021/07/26 01:55 EBFS 260155Z AUTO 18006KT 9999 SCT005/// BKN007/// 15/15 Q1009 YLO
EBCV - Chievres, Belgium
Distance de la station: NO 40km
Mise à jour: 26/07/2021 03:55
principalement nuageux
principalement nuageux
 Wind from S
Vent: S 7 km/h
Température: 16°C
Point de rosée: 16°C
Humidité: 100%
Baromètre: 1008 hPa
Ciel: principalement nuageux
Détails du ciel: principalement nuageux 1524 m
2021/07/26 01:55 EBCV 260155Z AUTO 18004KT //// BKN050/// 16/16 Q1008 BLU
 
EBBE - Beauvechain, Belgium
Distance de la station: NE 57km
Mise à jour: 26/07/2021 03:55
quelques nuages
quelques nuages
 Wind from S
Vent: S 13 km/h
Température: 17°C
Point de rosée: 15°C
Humidité: 88%
Baromètre: 1008 hPa
Ciel: quelques nuages
Visibilité: 10 km
Détails du ciel: quelques nuages 1006 m
2021/07/26 01:55 EBBE 260155Z AUTO 19007KT 9999 FEW033/// 17/15 Q1008 BLU
EBBR - Brussels National, Belgium
Distance de la station: NNE 63km
Mise à jour: 26/07/2021 03:50
clair
clair
 Wind from S
Vent: S 11 km/h
Température: 17°C
Point de rosée: 16°C
Humidité: 94%
Baromètre: 1008 hPa
Résumé: clair
Visibilité: greater than 10 km
2021/07/26 01:50 EBBR 260150Z 19006KT CAVOK 17/16 Q1008 NOSIG
LFQI - Cambrai/Epinoy, France
Distance de la station: O 82km
Mise à jour: 29/06/2012 12:30
NOT Current

 Wind from SO
Vent: SO 17 km/h
Température: 18°C
Point de rosée: 14°C
Humidité: 78%
Baromètre: 1009 hPa
2012/06/29 10:30 LFQI 291030Z AUTO 22009KT //// // ///////// 18/14 Q1009
 
LFQQ - Lille/Lesquin, France
Distance de la station: ONO 86km
Mise à jour: 26/07/2021 04:00
brume, Thunderstorm
brume, Thunderstorm
 Wind from SO
Vent: SO 6 km/h
Température: 17°C
Point de rosée: 16°C
Humidité: 94%
Baromètre: 1008 hPa
Résumé: brume
Ciel: Thunderstorm
Visibilité: 5 km
Détails du ciel: principalement nuageux 152 m
principalement nuageux 396 m
couvert 579 m
2021/07/26 02:00 LFQQ 260200Z AUTO 22003KT 5000 BR BKN005/// BKN013/// OVC019/// ///CB 17/16 Q1008 TEMPO 0400 FG OVC005
EBLG - Bierset/Liege, Belgium
Distance de la station: ENE 89km
Mise à jour: 26/07/2021 03:50
clair
clair
 Wind from S
Vent: S 13 km/h
Température: 17°C
Point de rosée: 14°C
Humidité: 83%
Baromètre: 1009 hPa
Résumé: clair
Visibilité: greater than 10 km
2021/07/26 01:50 EBLG 260150Z 18007KT CAVOK 17/14 Q1009 NOSIG
EBDT - Schaffen, Belgium
Distance de la station: NE 93km
Mise à jour: 26/07/2021 03:55
principalement nuageux
principalement nuageux
 Wind from S
Vent: S 9 km/h
Température: 17°C
Point de rosée: 15°C
Humidité: 88%
Baromètre: 1008 hPa
Ciel: principalement nuageux
Visibilité: 10 km
Détails du ciel: principalement nuageux 1158 m
2021/07/26 01:55 EBDT 260155Z AUTO 18005KT 9999 BKN038/// 17/15 Q1008 BLU
 
EBAW - Antwerp/Deurne, Belgium
Distance de la station: N 96km
Mise à jour: 26/07/2021 03:50
clair
clair
 Wind from SE
Vent: SE 4 km/h
Température: 16°C
Point de rosée: 15°C
Humidité: 94%
Baromètre: 1008 hPa
Résumé: clair
Visibilité: greater than 10 km
2021/07/26 01:50 EBAW 260150Z AUTO 13002KT CAVOK 16/15 Q1008
LFAQ - Bray, France
Distance de la station: OSO 119km
Mise à jour: 26/07/2021 04:00
brume, couvert
brume, couvert
 Wind from OSO
Vent: OSO 15 km/h
Température: 16°C
Point de rosée: 16°C
Humidité: 100%
Baromètre: 1009 hPa
Résumé: brume
Ciel: couvert
Visibilité: 5 km
Détails du ciel: principalement nuageux 213 m
couvert 366 m
2021/07/26 02:00 LFAQ 260200Z AUTO 24008KT 4700 BR BKN007 OVC012 16/16 Q1009
LFSR - Reims/Champagne, France
Distance de la station: S 120km
Mise à jour: 16/04/2012 09:00
NOT Current
partiellement nuageux
partiellement nuageux
 Wind from N
Vent: N 17 km/h
Température: 4°C
Température ressentie: 0°C
Point de rosée: 0°C
Humidité: 75%
Baromètre: 1022 hPa
Ciel: partiellement nuageux
Visibilité: 10 km
2012/04/16 07:00 LFSR 160700Z AUTO 01009KT 340V070 9999 NSC 04/00 Q1022
 
EHWO - Woensdrecht, Netherlands
Distance de la station: N 122km
Mise à jour: 26/07/2021 03:55
brouillard, principalement nuageux
brouillard, principalement nuageux
 Wind from NE
Vent: NE 4 km/h
Température: 14°C
Point de rosée: 14°C
Humidité: 100%
Baromètre: 1007 hPa
Résumé: brouillard
Ciel: principalement nuageux
Visibilité: 1 km
Détails du ciel: principalement nuageux 3658 m
2021/07/26 01:55 EHWO 260155Z AUTO 04002KT 0500 FG BKN120 14/14 Q1007 RED
EHBK - Zuid-Limburg, Netherlands
Distance de la station: ENE 123km
Mise à jour: 26/07/2021 03:55
partiellement nuageux
partiellement nuageux
 Wind from S
Vent: S 15 km/h
Température: 17°C
Point de rosée: 15°C
Humidité: 88%
Baromètre: 1009 hPa
Ciel: partiellement nuageux
Visibilité: 10 km
2021/07/26 01:55 EHBK 260155Z AUTO 19008KT 9999 NSC 17/15 Q1009
EBBL - Kleine-Brogel, Belgium
Distance de la station: NE 124km
Mise à jour: 26/07/2021 03:55
clair
clair
 Wind from varies
Vent: varies 4 km/h
Température: 16°C
Point de rosée: 15°C
Humidité: 94%
Baromètre: 1008 hPa
Ciel: clair
Visibilité: 10 km
2021/07/26 01:55 EBBL 260155Z AUTO VRB02KT 9999 NCD 16/15 Q1008 BLU
 
EBLB - Elsenborn, Belgium
Distance de la station: E 135km
Mise à jour: 26/07/2021 03:55
principalement nuageux
principalement nuageux
 Wind from S
Vent: S 7 km/h
Température: 14°C
Point de rosée: 13°C
Humidité: 94%
Baromètre: 1011 hPa
Ciel: principalement nuageux
Visibilité: 10 km
Détails du ciel: principalement nuageux 7315 m
2021/07/26 01:55 EBLB 260155Z AUTO 18004KT 9999 BKN240/// 14/13 Q1011 BLU
EBOS - Oostende Airport, Belgium
Distance de la station: NO 136km
Mise à jour: 26/07/2021 03:50
partiellement nuageux
partiellement nuageux
 Wind from varies
Vent: varies 2 km/h
Température: 17°C
Point de rosée: 16°C
Humidité: 94%
Baromètre: 1008 hPa
Ciel: partiellement nuageux
Visibilité: 10 km
Détails du ciel: quelques nuages 823 m
partiellement nuageux 1219 m
2021/07/26 01:50 EBOS 260150Z VRB01KT 9999 FEW027 SCT040 17/16 Q1008 TEMPO 4000 SHRA
EBFN - Koksijde, Belgium
Distance de la station: NO 140km
Mise à jour: 26/07/2021 03:55
Pluie, couvert
Pluie, couvert
 Wind from varies
Vent: varies 0 km/h
Température: 18°C
Point de rosée: 18°C
Humidité: 100%
Baromètre: 1008 hPa
Résumé: Pluie
Ciel: couvert
Visibilité: 3 km
Détails du ciel: couvert 244 m
2021/07/26 01:55 EBFN 260155Z AUTO //////KT 2500 RA OVC008/// 18/18 Q1008 YLO
 
ETNG - Geilenkirchen, Germany
Distance de la station: ENE 142km
Mise à jour: 26/07/2021 03:50
clair
clair
 Wind from S
Vent: S 2 km/h
Température: 19°C
Point de rosée: 16°C
Humidité: 83%
Baromètre: 1009 hPa
Résumé: clair
Visibilité: greater than 10 km
2021/07/26 01:50 ETNG 260150Z 19001KT CAVOK 19/16 Q1009
EHGR - Gilze-Rijen, Netherlands
Distance de la station: NNE 143km
Mise à jour: 26/07/2021 03:55
clair
clair
 Wind from S
Vent: S 4 km/h
Température: 16°C
Point de rosée: 16°C
Humidité: 100%
Baromètre: 1008 hPa
Ciel: clair
Visibilité: 10 km
2021/07/26 01:55 EHGR 260155Z AUTO 17002KT 9999 NCD 16/16 Q1008 BLU
EHEH - Eindhoven, Netherlands
Distance de la station: NNE 147km
Mise à jour: 26/07/2021 03:55
partiellement nuageux
partiellement nuageux
 Wind from SSE
Vent: SSE 6 km/h
Température: 17°C
Point de rosée: 16°C
Humidité: 94%
Baromètre: 1008 hPa
Ciel: partiellement nuageux
Visibilité: 10 km
Détails du ciel: partiellement nuageux 9754 m
2021/07/26 01:55 EHEH 260155Z AUTO 15003KT 9999 SCT320 17/16 Q1008 BLU
 
ELLX - Luxembourg, Luxembourg
Distance de la station: ESE 162km
Mise à jour: 26/07/2021 03:50
clair
clair
 Wind from S
Vent: S 7 km/h
Température: 15°C
Point de rosée: 15°C
Humidité: 100%
Baromètre: 1011 hPa
Ciel: clair
Visibilité: 7 km
2021/07/26 01:50 ELLX 260150Z AUTO 17004KT 7000 NCD 15/15 Q1011 NOSIG
EHVK - Volkel, Netherlands
Distance de la station: NE 174km
Mise à jour: 26/07/2021 03:55
couvert
couvert
 Wind from SSE
Vent: SSE 4 km/h
Température: 15°C
Point de rosée: 15°C
Humidité: 100%
Baromètre: 1008 hPa
Ciel: couvert
Visibilité: 10 km
Détails du ciel: partiellement nuageux 3962 m
couvert 8839 m
2021/07/26 01:55 EHVK 260155Z AUTO 15002KT 9999 SCT130 OVC290 15/15 Q1008 BLU
LFOK - Chalons/Vatry, France
Distance de la station: S 174km
Mise à jour: 26/07/2021 04:00
partiellement nuageux
partiellement nuageux
 Wind from SSO
Vent: SSO 11 km/h
Température: 15°C
Point de rosée: 14°C
Humidité: 94%
Baromètre: 1011 hPa
Ciel: partiellement nuageux
Visibilité: 10 km
Détails du ciel: quelques nuages 1036 m
partiellement nuageux 3048 m
2021/07/26 02:00 LFOK 260200Z AUTO 21006KT 9999 FEW034 SCT100 15/14 Q1011 TEMPO BKN007
Script from Saratoga-Weather.org